createdAt,value
2023-04-09T00:04:03.727Z,7.40
2023-04-09T00:09:06.482Z,7.41
2023-04-09T00:14:09.548Z,7.40
2023-04-09T00:19:14.503Z,7.38
2023-04-09T00:24:17.622Z,7.38
2023-04-09T00:29:20.533Z,7.39
2023-04-09T00:34:24.940Z,7.38
2023-04-09T00:39:27.709Z,7.34
2023-04-09T00:44:30.748Z,7.31
2023-04-09T00:49:34.992Z,7.35
2023-04-09T00:54:37.970Z,7.34
2023-04-09T00:59:40.977Z,7.35
2023-04-09T01:04:46.216Z,7.32
2023-04-09T01:09:55.456Z,7.32
2023-04-09T01:15:05.031Z,7.32
2023-04-09T01:20:14.742Z,7.30
2023-04-09T01:25:36.501Z,7.25
2023-04-09T01:30:44.480Z,7.25
2023-04-09T01:35:49.381Z,7.25
2023-04-09T01:40:54.020Z,7.23
2023-04-09T01:46:00.405Z,7.21
2023-04-09T01:51:03.568Z,7.20
2023-04-09T01:56:06.712Z,7.17
2023-04-09T02:01:15.642Z,7.14
2023-04-09T02:06:26.674Z,7.09
2023-04-09T02:11:34.692Z,7.08
2023-04-09T02:16:40.072Z,7.01
2023-04-09T02:21:42.810Z,6.97
2023-04-09T02:26:45.747Z,6.93
2023-04-09T02:31:50.150Z,6.93
2023-04-09T02:36:53.235Z,6.90
2023-04-09T02:41:56.307Z,6.86
2023-04-09T02:47:00.434Z,6.81
2023-04-09T02:52:03.591Z,6.81
2023-04-09T02:57:07.090Z,6.78
2023-04-09T03:02:11.342Z,6.73
2023-04-09T03:07:14.228Z,6.67
2023-04-09T03:12:16.915Z,6.63
2023-04-09T03:17:21.017Z,6.59
2023-04-09T03:22:23.968Z,6.53
2023-04-09T03:27:28.944Z,6.48
2023-04-09T03:32:34.917Z,6.41
2023-04-09T03:37:37.997Z,6.29
2023-04-09T03:42:44.328Z,6.17
2023-04-09T03:47:51.215Z,6.08
2023-04-09T03:52:58.589Z,6.00
2023-04-09T03:58:01.820Z,5.85
2023-04-09T04:03:09.875Z,5.75
2023-04-09T04:08:30.177Z,5.62
2023-04-09T04:13:36.377Z,5.56
2023-04-09T04:18:44.243Z,5.41
2023-04-09T04:23:48.229Z,5.31
2023-04-09T04:28:58.554Z,5.24
2023-04-09T04:34:21.043Z,5.09
2023-04-09T04:39:32.060Z,5.00
2023-04-09T04:44:39.476Z,4.99
2023-04-09T04:49:51.077Z,4.97
2023-04-09T04:54:54.802Z,4.87
2023-04-09T04:59:59.804Z,4.85
2023-04-09T05:05:05.496Z,4.76
2023-04-09T05:10:13.984Z,4.80
2023-04-09T05:15:18.910Z,4.79
2023-04-09T05:20:23.614Z,4.67
2023-04-09T05:25:39.818Z,4.67
2023-04-09T05:30:47.919Z,4.60
2023-04-09T05:35:53.440Z,4.63
2023-04-09T05:40:56.689Z,4.70
2023-04-09T05:46:00.130Z,4.85
2023-04-09T05:51:04.760Z,4.93
2023-04-09T05:56:15.376Z,5.20
2023-04-09T06:01:26.222Z,5.53
2023-04-09T06:06:30.474Z,5.86
2023-04-09T06:11:33.747Z,6.13
2023-04-09T06:16:36.618Z,6.44
2023-04-09T06:21:41.747Z,6.80
2023-04-09T06:26:44.600Z,7.16
2023-04-09T06:31:47.500Z,7.35
2023-04-09T06:36:51.859Z,7.37
2023-04-09T06:41:54.702Z,7.59
2023-04-09T06:47:08.731Z,8.04
2023-04-09T06:52:13.088Z,7.99
2023-04-09T06:57:16.047Z,8.28
2023-04-09T07:02:21.094Z,8.26
2023-04-09T07:07:25.837Z,8.44
2023-04-09T07:12:28.852Z,8.99
2023-04-09T07:17:32.564Z,8.79
2023-04-09T07:22:37.307Z,9.14
2023-04-09T07:27:40.204Z,8.90
2023-04-09T07:32:43.025Z,9.50
2023-04-09T07:37:47.279Z,9.73
2023-04-09T07:42:50.698Z,10.15
2023-04-09T07:47:53.538Z,10.38
2023-04-09T07:52:57.700Z,10.00
2023-04-09T07:58:00.731Z,10.55
2023-04-09T08:03:03.905Z,10.21
2023-04-09T08:08:08.783Z,10.42
2023-04-09T08:13:12.140Z,10.71
2023-04-09T08:18:14.947Z,10.80
2023-04-09T08:23:19.958Z,11.05
2023-04-09T08:28:23.906Z,11.18
2023-04-09T08:33:26.916Z,11.39
2023-04-09T08:38:31.843Z,11.47
2023-04-09T08:43:56.477Z,11.52
2023-04-09T08:48:59.098Z,11.25
2023-04-09T08:54:04.678Z,11.71
2023-04-09T08:59:07.951Z,11.50
2023-04-09T09:04:12.323Z,11.68
2023-04-09T09:09:18.933Z,12.28
2023-04-09T09:14:21.929Z,12.14
2023-04-09T09:19:31.334Z,11.85
2023-04-09T09:24:35.603Z,12.30
2023-04-09T09:29:42.640Z,12.54
2023-04-09T09:34:59.559Z,12.76
2023-04-09T09:40:04.203Z,11.84
2023-04-09T09:45:19.252Z,12.28
2023-04-09T09:50:26.461Z,12.36
2023-04-09T09:55:31.901Z,12.50
2023-04-09T10:00:38.034Z,12.62
2023-04-09T10:05:41.899Z,12.75
2023-04-09T10:10:46.858Z,12.56
2023-04-09T10:15:50.647Z,13.43
2023-04-09T10:21:03.828Z,13.48
2023-04-09T10:26:08.225Z,13.02
2023-04-09T10:31:13.922Z,12.27
2023-04-09T10:36:22.319Z,12.92
2023-04-09T10:41:30.723Z,13.35
2023-04-09T10:46:36.527Z,13.38
2023-04-09T10:51:39.620Z,13.51
2023-04-09T10:57:11.290Z,12.74
2023-04-09T11:02:49.114Z,13.10
2023-04-09T11:07:56.633Z,13.49
2023-04-09T11:13:01.102Z,13.40
2023-04-09T11:18:06.785Z,13.93
2023-04-09T11:23:09.676Z,13.90
2023-04-09T11:28:15.272Z,14.33
2023-04-09T11:33:20.054Z,14.24
2023-04-09T11:38:23.509Z,13.87
2023-04-09T11:43:28.169Z,14.05
2023-04-09T11:48:31.585Z,14.43
2023-04-09T11:53:34.873Z,13.84
2023-04-09T11:58:39.078Z,13.99
2023-04-09T12:03:42.252Z,13.85
2023-04-09T12:08:45.373Z,13.59
2023-04-09T12:13:49.503Z,13.66
2023-04-09T12:18:55.802Z,13.49
2023-04-09T12:23:58.679Z,13.45
2023-04-09T12:29:03.047Z,13.68
2023-04-09T12:34:05.874Z,14.23
2023-04-09T12:39:10.493Z,14.54
2023-04-09T12:44:14.640Z,14.08
2023-04-09T12:49:17.600Z,13.59
2023-04-09T12:54:20.531Z,13.53
2023-04-09T12:59:24.765Z,13.27
2023-04-09T13:04:27.655Z,13.31
2023-04-09T13:09:30.592Z,13.34
2023-04-09T13:14:34.712Z,13.47
2023-04-09T13:19:38.163Z,14.17
2023-04-09T13:24:43.148Z,14.35
2023-04-09T13:29:48.439Z,14.10
2023-04-09T13:34:54.141Z,14.86
2023-04-09T13:39:57.017Z,15.35
2023-04-09T13:45:02.253Z,14.95
2023-04-09T13:50:06.168Z,14.80
2023-04-09T13:55:10.384Z,14.39
2023-04-09T14:00:16.197Z,14.20
2023-04-09T14:05:19.003Z,14.45
2023-04-09T14:10:21.769Z,14.19
2023-04-09T14:15:26.476Z,13.69
2023-04-09T14:20:29.324Z,13.57
2023-04-09T14:25:32.123Z,13.61
2023-04-09T14:30:36.280Z,13.34
2023-04-09T14:35:39.004Z,13.47
2023-04-09T14:40:42.077Z,13.34
2023-04-09T14:45:46.310Z,13.06
2023-04-09T14:50:51.295Z,13.24
2023-04-09T14:55:54.062Z,13.17
2023-04-09T15:00:58.331Z,13.54
2023-04-09T15:06:01.016Z,13.43
2023-04-09T15:11:03.786Z,13.63
2023-04-09T15:16:10.268Z,13.17
2023-04-09T15:21:13.077Z,13.51
2023-04-09T15:26:15.913Z,13.19
2023-04-09T15:31:20.301Z,13.36
2023-04-09T15:36:23.856Z,13.46
2023-04-09T15:41:27.241Z,13.25
2023-04-09T15:46:31.768Z,13.10
2023-04-09T15:51:34.640Z,13.72
2023-04-09T15:56:40.276Z,14.71
2023-04-09T16:01:44.621Z,17.29
2023-04-09T16:06:48.084Z,20.18
2023-04-09T16:11:50.954Z,24.84
2023-04-09T16:16:55.137Z,25.95
2023-04-09T16:21:58.635Z,28.06
2023-04-09T16:27:01.506Z,25.74
2023-04-09T16:32:06.139Z,27.74
2023-04-09T16:37:09.320Z,29.13
2023-04-09T16:42:12.236Z,30.04
2023-04-09T16:47:16.288Z,30.62
2023-04-09T16:52:19.088Z,27.37
2023-04-09T16:57:23.036Z,28.59
2023-04-09T17:02:27.643Z,28.31
2023-04-09T17:07:30.924Z,26.68
2023-04-09T17:12:33.796Z,26.80
2023-04-09T17:17:38.165Z,23.98
2023-04-09T17:22:42.314Z,19.22
2023-04-09T17:27:45.394Z,17.85
2023-04-09T17:32:51.123Z,17.17
2023-04-09T17:37:53.963Z,16.38
2023-04-09T17:42:57.792Z,15.80
2023-04-09T17:48:03.442Z,15.24
2023-04-09T17:53:08.700Z,14.48
2023-04-09T17:58:12.407Z,13.74
2023-04-09T18:03:17.905Z,13.21
2023-04-09T18:08:20.784Z,12.73
2023-04-09T18:13:24.048Z,12.32
2023-04-09T18:18:29.470Z,11.46
2023-04-09T18:23:32.189Z,10.89
2023-04-09T18:28:35.588Z,10.50
2023-04-09T18:33:39.757Z,10.24
2023-04-09T18:38:42.565Z,10.11
2023-04-09T18:43:45.853Z,9.71
2023-04-09T18:48:50.134Z,9.25
2023-04-09T18:53:54.745Z,8.93
2023-04-09T18:58:57.496Z,8.61
2023-04-09T19:04:01.796Z,8.41
2023-04-09T19:09:05.013Z,8.34
2023-04-09T19:14:07.786Z,8.11
2023-04-09T19:19:11.951Z,8.02
2023-04-09T19:24:14.661Z,7.81
2023-04-09T19:29:17.377Z,7.53
2023-04-09T19:34:22.639Z,7.34
2023-04-09T19:39:25.788Z,7.08
2023-04-09T19:44:29.809Z,6.90
2023-04-09T19:49:33.938Z,6.80
2023-04-09T19:54:37.530Z,6.75
2023-04-09T20:19:50.611Z,6.04
2023-04-09T20:24:53.346Z,5.91
2023-04-09T20:29:56.533Z,5.71
2023-04-09T20:35:01.498Z,5.67
2023-04-09T20:40:05.658Z,5.67
2023-04-09T20:45:09.736Z,5.62
2023-04-09T20:50:14.555Z,5.42
2023-04-09T20:55:18.413Z,5.39
2023-04-09T21:00:22.499Z,5.16
2023-04-09T21:05:27.664Z,5.23
2023-04-09T21:10:30.439Z,5.11
2023-04-09T21:15:33.174Z,5.09
2023-04-09T21:20:37.725Z,4.94
2023-04-09T21:25:40.989Z,4.76
2023-04-09T21:30:43.773Z,4.67
2023-04-09T21:35:47.937Z,4.69
2023-04-09T21:40:50.620Z,4.64
2023-04-09T21:45:53.400Z,4.57
2023-04-09T21:50:58.195Z,4.55
2023-04-09T21:56:03.480Z,4.51
2023-04-09T22:01:15.865Z,4.41
2023-04-09T22:06:23.273Z,4.29
2023-04-09T22:11:28.154Z,4.19
2023-04-09T22:16:31.684Z,4.10
2023-04-09T22:21:35.874Z,4.04
2023-04-09T22:26:40.872Z,3.98
2023-04-09T22:31:43.631Z,3.90
2023-04-09T22:36:47.817Z,3.76
2023-04-09T22:41:50.541Z,3.83
2023-04-09T22:46:53.438Z,3.71
2023-04-09T22:51:57.655Z,3.61
2023-04-09T22:57:01.185Z,3.44
2023-04-09T23:02:04.041Z,3.58
2023-04-09T23:07:09.283Z,3.62
2023-04-09T23:12:12.422Z,3.60
2023-04-09T23:17:15.316Z,3.54
2023-04-09T23:22:19.481Z,3.50
2023-04-09T23:27:28.159Z,3.45
2023-04-09T23:32:31.112Z,3.45
2023-04-09T23:37:35.325Z,3.45
2023-04-09T23:42:38.112Z,3.32
2023-04-09T23:47:41.362Z,3.22
2023-04-09T23:52:49.227Z,3.17
2023-04-09T23:57:52.050Z,3.06
